sensor_id;sensor_type;location;lat;lon;timestamp;P1;durP1;ratioP1;P2;durP2;ratioP2
19593;SDS011;9944;48.240;16.478;2023-08-31T00:03:57;1.50;;;1.40;;
19593;SDS011;9944;48.240;16.478;2023-08-31T00:08:03;2.08;;;1.23;;
19593;SDS011;9944;48.240;16.478;2023-08-31T00:12:07;2.10;;;1.48;;
19593;SDS011;9944;48.240;16.478;2023-08-31T00:16:10;1.55;;;1.30;;
19593;SDS011;9944;48.240;16.478;2023-08-31T00:20:14;1.33;;;1.23;;
19593;SDS011;9944;48.240;16.478;2023-08-31T00:24:19;1.52;;;1.10;;
19593;SDS011;9944;48.240;16.478;2023-08-31T00:28:23;1.33;;;1.23;;
19593;SDS011;9944;48.240;16.478;2023-08-31T00:32:29;3.90;;;1.30;;
19593;SDS011;9944;48.240;16.478;2023-08-31T00:36:33;1.52;;;1.40;;
19593;SDS011;9944;48.240;16.478;2023-08-31T00:40:39;1.75;;;1.40;;
19593;SDS011;9944;48.240;16.478;2023-08-31T00:44:44;1.67;;;1.40;;
19593;SDS011;9944;48.240;16.478;2023-08-31T00:48:48;1.42;;;1.23;;
19593;SDS011;9944;48.240;16.478;2023-08-31T00:52:51;4.07;;;1.50;;
19593;SDS011;9944;48.240;16.478;2023-08-31T00:56:56;1.73;;;1.42;;
19593;SDS011;9944;48.240;16.478;2023-08-31T01:01:01;1.40;;;1.30;;
19593;SDS011;9944;48.240;16.478;2023-08-31T01:05:11;2.03;;;1.50;;
19593;SDS011;9944;48.240;16.478;2023-08-31T01:09:27;1.63;;;1.20;;
19593;SDS011;9944;48.240;16.478;2023-08-31T01:13:40;2.92;;;1.38;;
19593;SDS011;9944;48.240;16.478;2023-08-31T01:17:48;1.52;;;1.40;;
19593;SDS011;9944;48.240;16.478;2023-08-31T01:21:55;1.65;;;1.40;;
19593;SDS011;9944;48.240;16.478;2023-08-31T01:26:04;1.85;;;1.63;;
19593;SDS011;9944;48.240;16.478;2023-08-31T01:30:08;4.03;;;1.63;;
19593;SDS011;9944;48.240;16.478;2023-08-31T01:34:11;2.78;;;1.42;;
19593;SDS011;9944;48.240;16.478;2023-08-31T01:38:15;1.42;;;1.27;;
19593;SDS011;9944;48.240;16.478;2023-08-31T01:42:24;2.00;;;1.63;;
19593;SDS011;9944;48.240;16.478;2023-08-31T01:46:30;1.85;;;1.45;;
19593;SDS011;9944;48.240;16.478;2023-08-31T01:50:34;1.48;;;1.38;;
19593;SDS011;9944;48.240;16.478;2023-08-31T01:54:37;1.50;;;1.40;;
19593;SDS011;9944;48.240;16.478;2023-08-31T01:58:42;2.20;;;1.50;;
19593;SDS011;9944;48.240;16.478;2023-08-31T02:02:45;1.92;;;1.42;;
19593;SDS011;9944;48.240;16.478;2023-08-31T02:06:49;1.67;;;1.58;;
19593;SDS011;9944;48.240;16.478;2023-08-31T02:10:53;1.90;;;1.73;;
19593;SDS011;9944;48.240;16.478;2023-08-31T02:14:58;2.45;;;1.55;;
19593;SDS011;9944;48.240;16.478;2023-08-31T02:19:02;1.55;;;1.30;;
19593;SDS011;9944;48.240;16.478;2023-08-31T02:23:05;2.00;;;1.58;;
19593;SDS011;9944;48.240;16.478;2023-08-31T02:27:08;1.70;;;1.55;;
19593;SDS011;9944;48.240;16.478;2023-08-31T02:31:13;2.25;;;1.70;;
19593;SDS011;9944;48.240;16.478;2023-08-31T02:35:18;2.10;;;1.85;;
19593;SDS011;9944;48.240;16.478;2023-08-31T02:39:21;2.05;;;1.77;;
19593;SDS011;9944;48.240;16.478;2023-08-31T02:43:25;1.65;;;1.55;;
19593;SDS011;9944;48.240;16.478;2023-08-31T02:47:31;1.80;;;1.70;;
19593;SDS011;9944;48.240;16.478;2023-08-31T02:51:35;1.88;;;1.75;;
19593;SDS011;9944;48.240;16.478;2023-08-31T02:55:38;2.30;;;2.03;;
19593;SDS011;9944;48.240;16.478;2023-08-31T02:59:42;2.67;;;2.10;;
19593;SDS011;9944;48.240;16.478;2023-08-31T03:03:48;2.42;;;2.10;;
19593;SDS011;9944;48.240;16.478;2023-08-31T03:07:53;2.65;;;2.00;;
19593;SDS011;9944;48.240;16.478;2023-08-31T03:12:01;2.40;;;2.10;;
19593;SDS011;9944;48.240;16.478;2023-08-31T03:16:04;2.30;;;2.00;;
19593;SDS011;9944;48.240;16.478;2023-08-31T03:20:09;2.30;;;2.10;;
19593;SDS011;9944;48.240;16.478;2023-08-31T03:24:13;2.38;;;2.03;;
19593;SDS011;9944;48.240;16.478;2023-08-31T03:28:16;2.40;;;2.03;;
19593;SDS011;9944;48.240;16.478;2023-08-31T03:32:20;2.55;;;2.30;;
19593;SDS011;9944;48.240;16.478;2023-08-31T03:36:25;1.98;;;1.80;;
19593;SDS011;9944;48.240;16.478;2023-08-31T03:40:29;2.38;;;2.10;;
19593;SDS011;9944;48.240;16.478;2023-08-31T03:44:34;2.47;;;2.00;;
19593;SDS011;9944;48.240;16.478;2023-08-31T03:48:39;2.10;;;1.90;;
19593;SDS011;9944;48.240;16.478;2023-08-31T03:52:43;2.20;;;2.00;;
19593;SDS011;9944;48.240;16.478;2023-08-31T03:56:47;1.98;;;1.77;;
19593;SDS011;9944;48.240;16.478;2023-08-31T04:00:52;2.88;;;2.17;;
19593;SDS011;9944;48.240;16.478;2023-08-31T04:04:57;1.92;;;1.83;;
19593;SDS011;9944;48.240;16.478;2023-08-31T04:09:02;2.75;;;2.10;;
19593;SDS011;9944;48.240;16.478;2023-08-31T04:13:08;2.30;;;2.10;;
19593;SDS011;9944;48.240;16.478;2023-08-31T04:17:12;2.50;;;2.10;;
19593;SDS011;9944;48.240;16.478;2023-08-31T04:21:16;2.75;;;2.40;;
19593;SDS011;9944;48.240;16.478;2023-08-31T04:25:21;2.17;;;1.98;;
19593;SDS011;9944;48.240;16.478;2023-08-31T04:29:24;2.47;;;2.08;;
19593;SDS011;9944;48.240;16.478;2023-08-31T04:33:28;2.60;;;2.30;;
19593;SDS011;9944;48.240;16.478;2023-08-31T04:37:31;2.38;;;1.70;;
19593;SDS011;9944;48.240;16.478;2023-08-31T04:41:36;2.10;;;1.90;;
19593;SDS011;9944;48.240;16.478;2023-08-31T04:45:39;2.05;;;1.60;;
19593;SDS011;9944;48.240;16.478;2023-08-31T04:49:43;1.75;;;1.50;;
19593;SDS011;9944;48.240;16.478;2023-08-31T04:53:47;1.77;;;1.33;;
19593;SDS011;9944;48.240;16.478;2023-08-31T04:57:52;1.48;;;1.38;;
19593;SDS011;9944;48.240;16.478;2023-08-31T05:01:55;1.60;;;1.50;;
19593;SDS011;9944;48.240;16.478;2023-08-31T05:05:58;1.83;;;1.40;;
19593;SDS011;9944;48.240;16.478;2023-08-31T05:10:02;1.42;;;1.33;;
19593;SDS011;9944;48.240;16.478;2023-08-31T05:14:08;2.75;;;1.60;;
19593;SDS011;9944;48.240;16.478;2023-08-31T05:18:11;2.65;;;1.48;;
19593;SDS011;9944;48.240;16.478;2023-08-31T05:22:15;1.55;;;1.45;;
19593;SDS011;9944;48.240;16.478;2023-08-31T05:26:18;1.40;;;1.30;;
19593;SDS011;9944;48.240;16.478;2023-08-31T05:30:23;1.50;;;1.35;;
19593;SDS011;9944;48.240;16.478;2023-08-31T05:34:27;2.03;;;1.60;;
19593;SDS011;9944;48.240;16.478;2023-08-31T05:38:30;1.73;;;1.60;;
19593;SDS011;9944;48.240;16.478;2023-08-31T05:42:34;2.10;;;1.70;;
19593;SDS011;9944;48.240;16.478;2023-08-31T05:46:39;2.10;;;1.60;;
19593;SDS011;9944;48.240;16.478;2023-08-31T05:50:43;1.38;;;1.10;;
19593;SDS011;9944;48.240;16.478;2023-08-31T05:54:46;1.23;;;1.13;;
19593;SDS011;9944;48.240;16.478;2023-08-31T05:58:50;1.30;;;1.20;;
19593;SDS011;9944;48.240;16.478;2023-08-31T06:02:58;2.00;;;1.30;;
19593;SDS011;9944;48.240;16.478;2023-08-31T06:07:01;1.70;;;1.30;;
19593;SDS011;9944;48.240;16.478;2023-08-31T06:11:05;2.50;;;1.30;;
19593;SDS011;9944;48.240;16.478;2023-08-31T06:15:09;1.70;;;1.40;;
19593;SDS011;9944;48.240;16.478;2023-08-31T06:19:14;1.45;;;1.35;;
19593;SDS011;9944;48.240;16.478;2023-08-31T06:23:18;1.75;;;1.50;;
19593;SDS011;9944;48.240;16.478;2023-08-31T06:27:21;3.70;;;1.30;;
19593;SDS011;9944;48.240;16.478;2023-08-31T06:31:25;1.45;;;1.35;;
19593;SDS011;9944;48.240;16.478;2023-08-31T06:35:30;1.20;;;1.02;;
19593;SDS011;9944;48.240;16.478;2023-08-31T06:39:33;1.67;;;1.20;;
19593;SDS011;9944;48.240;16.478;2023-08-31T06:43:37;1.30;;;1.20;;
19593;SDS011;9944;48.240;16.478;2023-08-31T06:47:41;2.17;;;0.95;;
19593;SDS011;9944;48.240;16.478;2023-08-31T06:51:46;1.80;;;1.00;;
19593;SDS011;9944;48.240;16.478;2023-08-31T06:55:50;2.25;;;1.25;;
19593;SDS011;9944;48.240;16.478;2023-08-31T06:59:54;1.73;;;1.05;;
19593;SDS011;9944;48.240;16.478;2023-08-31T07:03:57;1.88;;;1.15;;
19593;SDS011;9944;48.240;16.478;2023-08-31T07:08:03;1.40;;;1.30;;
19593;SDS011;9944;48.240;16.478;2023-08-31T07:12:07;1.10;;;1.00;;
19593;SDS011;9944;48.240;16.478;2023-08-31T07:16:12;1.08;;;0.98;;
19593;SDS011;9944;48.240;16.478;2023-08-31T07:20:27;2.05;;;1.10;;
19593;SDS011;9944;48.240;16.478;2023-08-31T07:24:32;1.52;;;1.05;;
19593;SDS011;9944;48.240;16.478;2023-08-31T07:28:37;1.98;;;1.10;;
19593;SDS011;9944;48.240;16.478;2023-08-31T07:32:41;1.30;;;1.20;;
19593;SDS011;9944;48.240;16.478;2023-08-31T07:36:52;1.40;;;1.30;;
19593;SDS011;9944;48.240;16.478;2023-08-31T07:40:57;1.30;;;1.20;;
19593;SDS011;9944;48.240;16.478;2023-08-31T07:45:01;1.65;;;1.35;;
19593;SDS011;9944;48.240;16.478;2023-08-31T07:49:04;2.90;;;1.55;;
19593;SDS011;9944;48.240;16.478;2023-08-31T07:53:08;2.78;;;1.50;;
19593;SDS011;9944;48.240;16.478;2023-08-31T07:57:13;2.30;;;1.23;;
19593;SDS011;9944;48.240;16.478;2023-08-31T08:01:17;1.80;;;1.20;;
19593;SDS011;9944;48.240;16.478;2023-08-31T08:05:21;1.35;;;1.25;;
19593;SDS011;9944;48.240;16.478;2023-08-31T08:09:24;1.55;;;1.30;;
19593;SDS011;9944;48.240;16.478;2023-08-31T08:13:29;1.33;;;1.23;;
19593;SDS011;9944;48.240;16.478;2023-08-31T08:17:33;1.63;;;1.42;;
19593;SDS011;9944;48.240;16.478;2023-08-31T08:21:36;1.60;;;1.40;;
19593;SDS011;9944;48.240;16.478;2023-08-31T08:25:40;2.05;;;1.55;;
19593;SDS011;9944;48.240;16.478;2023-08-31T08:29:45;2.53;;;1.70;;
19593;SDS011;9944;48.240;16.478;2023-08-31T08:33:49;2.58;;;1.60;;
19593;SDS011;9944;48.240;16.478;2023-08-31T08:37:52;1.80;;;1.27;;
19593;SDS011;9944;48.240;16.478;2023-08-31T08:41:56;2.10;;;1.63;;
19593;SDS011;9944;48.240;16.478;2023-08-31T08:46:04;2.08;;;1.40;;
19593;SDS011;9944;48.240;16.478;2023-08-31T08:50:09;2.08;;;1.65;;
19593;SDS011;9944;48.240;16.478;2023-08-31T08:54:14;1.60;;;1.50;;
19593;SDS011;9944;48.240;16.478;2023-08-31T08:58:18;2.45;;;1.60;;
19593;SDS011;9944;48.240;16.478;2023-08-31T09:02:23;1.77;;;1.50;;
19593;SDS011;9944;48.240;16.478;2023-08-31T09:06:26;1.65;;;1.30;;
19593;SDS011;9944;48.240;16.478;2023-08-31T09:10:32;1.40;;;1.30;;
19593;SDS011;9944;48.240;16.478;2023-08-31T09:14:38;1.83;;;1.55;;
19593;SDS011;9944;48.240;16.478;2023-08-31T09:18:43;1.48;;;1.38;;
19593;SDS011;9944;48.240;16.478;2023-08-31T09:22:47;2.15;;;1.40;;
19593;SDS011;9944;48.240;16.478;2023-08-31T09:26:54;2.40;;;1.52;;
19593;SDS011;9944;48.240;16.478;2023-08-31T09:31:04;1.65;;;1.38;;
19593;SDS011;9944;48.240;16.478;2023-08-31T09:35:10;1.88;;;1.20;;
19593;SDS011;9944;48.240;16.478;2023-08-31T09:39:21;1.77;;;1.60;;
19593;SDS011;9944;48.240;16.478;2023-08-31T09:43:24;1.67;;;1.40;;
19593;SDS011;9944;48.240;16.478;2023-08-31T09:47:28;1.10;;;1.00;;
19593;SDS011;9944;48.240;16.478;2023-08-31T09:51:33;2.17;;;1.20;;
19593;SDS011;9944;48.240;16.478;2023-08-31T09:55:38;1.20;;;1.10;;
19593;SDS011;9944;48.240;16.478;2023-08-31T09:59:43;1.25;;;1.10;;
19593;SDS011;9944;48.240;16.478;2023-08-31T10:03:46;1.27;;;1.17;;
19593;SDS011;9944;48.240;16.478;2023-08-31T10:08:17;1.35;;;1.25;;
19593;SDS011;9944;48.240;16.478;2023-08-31T10:12:21;2.30;;;1.13;;
19593;SDS011;9944;48.240;16.478;2023-08-31T10:16:25;1.25;;;1.02;;
19593;SDS011;9944;48.240;16.478;2023-08-31T10:20:30;1.40;;;1.10;;
19593;SDS011;9944;48.240;16.478;2023-08-31T10:29:02;1.05;;;0.98;;
19593;SDS011;9944;48.240;16.478;2023-08-31T10:33:20;1.52;;;0.98;;
19593;SDS011;9944;48.240;16.478;2023-08-31T10:37:26;1.40;;;1.00;;
19593;SDS011;9944;48.240;16.478;2023-08-31T10:41:33;1.40;;;1.20;;
19593;SDS011;9944;48.240;16.478;2023-08-31T10:45:43;1.15;;;0.90;;
19593;SDS011;9944;48.240;16.478;2023-08-31T10:49:50;1.08;;;0.95;;
19593;SDS011;9944;48.240;16.478;2023-08-31T10:58:23;1.70;;;1.10;;
19593;SDS011;9944;48.240;16.478;2023-08-31T11:02:35;1.10;;;1.00;;
19593;SDS011;9944;48.240;16.478;2023-08-31T11:06:39;1.27;;;1.17;;
19593;SDS011;9944;48.240;16.478;2023-08-31T11:10:45;3.45;;;1.00;;
19593;SDS011;9944;48.240;16.478;2023-08-31T11:14:50;1.00;;;0.90;;
19593;SDS011;9944;48.240;16.478;2023-08-31T11:18:53;1.10;;;1.00;;
19593;SDS011;9944;48.240;16.478;2023-08-31T11:22:57;1.20;;;1.10;;
19593;SDS011;9944;48.240;16.478;2023-08-31T11:27:01;1.48;;;1.10;;
19593;SDS011;9944;48.240;16.478;2023-08-31T11:31:06;0.90;;;0.90;;
19593;SDS011;9944;48.240;16.478;2023-08-31T11:35:10;1.33;;;1.00;;
19593;SDS011;9944;48.240;16.478;2023-08-31T11:39:13;1.35;;;1.13;;
19593;SDS011;9944;48.240;16.478;2023-08-31T11:43:17;1.27;;;1.10;;
19593;SDS011;9944;48.240;16.478;2023-08-31T11:47:23;0.90;;;0.90;;
19593;SDS011;9944;48.240;16.478;2023-08-31T11:51:27;1.20;;;0.90;;
19593;SDS011;9944;48.240;16.478;2023-08-31T11:55:32;1.90;;;1.00;;
19593;SDS011;9944;48.240;16.478;2023-08-31T11:59:36;1.13;;;1.02;;
19593;SDS011;9944;48.240;16.478;2023-08-31T12:03:43;1.00;;;0.90;;
19593;SDS011;9944;48.240;16.478;2023-08-31T12:07:53;1.30;;;1.10;;
19593;SDS011;9944;48.240;16.478;2023-08-31T12:11:56;1.00;;;0.90;;
19593;SDS011;9944;48.240;16.478;2023-08-31T12:16:02;1.35;;;0.90;;
19593;SDS011;9944;48.240;16.478;2023-08-31T12:20:08;1.15;;;1.00;;
19593;SDS011;9944;48.240;16.478;2023-08-31T12:24:14;1.60;;;1.05;;
19593;SDS011;9944;48.240;16.478;2023-08-31T12:28:19;1.20;;;1.10;;
19593;SDS011;9944;48.240;16.478;2023-08-31T12:32:23;1.05;;;0.90;;
19593;SDS011;9944;48.240;16.478;2023-08-31T12:36:28;1.20;;;1.08;;
19593;SDS011;9944;48.240;16.478;2023-08-31T12:40:32;0.90;;;0.90;;
19593;SDS011;9944;48.240;16.478;2023-08-31T12:44:35;1.10;;;0.90;;
19593;SDS011;9944;48.240;16.478;2023-08-31T12:48:39;0.93;;;0.85;;
19593;SDS011;9944;48.240;16.478;2023-08-31T12:52:43;1.38;;;1.10;;
19593;SDS011;9944;48.240;16.478;2023-08-31T12:56:48;1.42;;;1.00;;
19593;SDS011;9944;48.240;16.478;2023-08-31T13:00:51;1.10;;;0.98;;
19593;SDS011;9944;48.240;16.478;2023-08-31T13:04:55;0.85;;;0.85;;
19593;SDS011;9944;48.240;16.478;2023-08-31T13:09:00;1.05;;;0.93;;
19593;SDS011;9944;48.240;16.478;2023-08-31T13:13:04;1.38;;;0.93;;
19593;SDS011;9944;48.240;16.478;2023-08-31T13:17:07;1.02;;;0.93;;
19593;SDS011;9944;48.240;16.478;2023-08-31T13:21:11;1.38;;;1.08;;
19593;SDS011;9944;48.240;16.478;2023-08-31T13:25:16;1.15;;;0.90;;
19593;SDS011;9944;48.240;16.478;2023-08-31T13:29:20;1.40;;;1.05;;
19593;SDS011;9944;48.240;16.478;2023-08-31T13:33:23;1.15;;;1.02;;
19593;SDS011;9944;48.240;16.478;2023-08-31T13:37:26;1.17;;;0.90;;
19593;SDS011;9944;48.240;16.478;2023-08-31T13:41:31;2.10;;;1.20;;
19593;SDS011;9944;48.240;16.478;2023-08-31T13:45:35;0.93;;;0.70;;
19593;SDS011;9944;48.240;16.478;2023-08-31T13:49:39;0.98;;;0.98;;
19593;SDS011;9944;48.240;16.478;2023-08-31T13:53:42;1.30;;;1.20;;
19593;SDS011;9944;48.240;16.478;2023-08-31T13:57:47;1.55;;;1.20;;
19593;SDS011;9944;48.240;16.478;2023-08-31T14:01:50;1.17;;;0.90;;
19593;SDS011;9944;48.240;16.478;2023-08-31T14:05:53;2.45;;;1.20;;
19593;SDS011;9944;48.240;16.478;2023-08-31T14:09:57;2.35;;;0.95;;
19593;SDS011;9944;48.240;16.478;2023-08-31T14:14:05;2.25;;;1.10;;
19593;SDS011;9944;48.240;16.478;2023-08-31T14:18:12;1.30;;;0.88;;
19593;SDS011;9944;48.240;16.478;2023-08-31T14:22:17;2.22;;;1.20;;
19593;SDS011;9944;48.240;16.478;2023-08-31T14:26:21;0.85;;;0.85;;
19593;SDS011;9944;48.240;16.478;2023-08-31T14:30:26;1.15;;;0.90;;
19593;SDS011;9944;48.240;16.478;2023-08-31T14:34:30;2.75;;;1.40;;
19593;SDS011;9944;48.240;16.478;2023-08-31T14:38:33;0.95;;;0.85;;
19593;SDS011;9944;48.240;16.478;2023-08-31T14:42:37;2.35;;;1.10;;
19593;SDS011;9944;48.240;16.478;2023-08-31T14:46:41;0.88;;;0.80;;
19593;SDS011;9944;48.240;16.478;2023-08-31T14:50:45;1.00;;;0.90;;
19593;SDS011;9944;48.240;16.478;2023-08-31T14:54:48;1.70;;;1.20;;
19593;SDS011;9944;48.240;16.478;2023-08-31T14:58:51;1.58;;;0.98;;
19593;SDS011;9944;48.240;16.478;2023-08-31T15:02:56;1.20;;;0.95;;
19593;SDS011;9944;48.240;16.478;2023-08-31T15:07:00;1.45;;;1.10;;
19593;SDS011;9944;48.240;16.478;2023-08-31T15:11:04;2.28;;;1.20;;
19593;SDS011;9944;48.240;16.478;2023-08-31T15:15:08;1.48;;;1.00;;
19593;SDS011;9944;48.240;16.478;2023-08-31T15:19:13;1.98;;;1.10;;
19593;SDS011;9944;48.240;16.478;2023-08-31T15:23:20;2.03;;;1.20;;
19593;SDS011;9944;48.240;16.478;2023-08-31T15:27:24;1.70;;;1.00;;
19593;SDS011;9944;48.240;16.478;2023-08-31T15:31:27;1.42;;;1.10;;
19593;SDS011;9944;48.240;16.478;2023-08-31T15:35:31;1.23;;;0.88;;
19593;SDS011;9944;48.240;16.478;2023-08-31T15:39:35;1.60;;;1.00;;
19593;SDS011;9944;48.240;16.478;2023-08-31T15:43:38;2.28;;;1.05;;
19593;SDS011;9944;48.240;16.478;2023-08-31T15:47:41;1.83;;;1.10;;
19593;SDS011;9944;48.240;16.478;2023-08-31T15:51:46;1.30;;;0.90;;
19593;SDS011;9944;48.240;16.478;2023-08-31T15:55:49;1.20;;;1.10;;
19593;SDS011;9944;48.240;16.478;2023-08-31T15:59:57;1.00;;;0.90;;
19593;SDS011;9944;48.240;16.478;2023-08-31T16:04:00;1.55;;;1.20;;
19593;SDS011;9944;48.240;16.478;2023-08-31T16:08:05;1.25;;;1.08;;
19593;SDS011;9944;48.240;16.478;2023-08-31T16:12:09;2.00;;;1.10;;
19593;SDS011;9944;48.240;16.478;2023-08-31T16:16:12;1.00;;;0.90;;
19593;SDS011;9944;48.240;16.478;2023-08-31T16:20:15;1.30;;;0.93;;
19593;SDS011;9944;48.240;16.478;2023-08-31T16:24:21;1.65;;;1.00;;
19593;SDS011;9944;48.240;16.478;2023-08-31T16:28:25;1.52;;;1.15;;
19593;SDS011;9944;48.240;16.478;2023-08-31T16:32:28;2.00;;;1.25;;
19593;SDS011;9944;48.240;16.478;2023-08-31T16:36:32;1.60;;;1.17;;
19593;SDS011;9944;48.240;16.478;2023-08-31T16:40:36;1.42;;;1.10;;
19593;SDS011;9944;48.240;16.478;2023-08-31T16:44:40;1.30;;;1.10;;
19593;SDS011;9944;48.240;16.478;2023-08-31T16:48:45;1.42;;;1.00;;
19593;SDS011;9944;48.240;16.478;2023-08-31T16:52:53;1.92;;;1.17;;
19593;SDS011;9944;48.240;16.478;2023-08-31T16:56:58;1.23;;;1.00;;
19593;SDS011;9944;48.240;16.478;2023-08-31T17:01:02;2.20;;;1.10;;
19593;SDS011;9944;48.240;16.478;2023-08-31T17:05:06;1.58;;;1.40;;
19593;SDS011;9944;48.240;16.478;2023-08-31T17:09:10;1.50;;;1.30;;
19593;SDS011;9944;48.240;16.478;2023-08-31T17:13:14;1.77;;;0.90;;
19593;SDS011;9944;48.240;16.478;2023-08-31T17:17:18;1.08;;;0.98;;
19593;SDS011;9944;48.240;16.478;2023-08-31T17:21:21;1.52;;;1.15;;
19593;SDS011;9944;48.240;16.478;2023-08-31T17:25:24;1.73;;;1.23;;
19593;SDS011;9944;48.240;16.478;2023-08-31T17:29:29;1.60;;;1.15;;
19593;SDS011;9944;48.240;16.478;2023-08-31T17:33:33;1.90;;;1.20;;
19593;SDS011;9944;48.240;16.478;2023-08-31T17:37:38;1.70;;;1.13;;
19593;SDS011;9944;48.240;16.478;2023-08-31T17:41:41;1.23;;;1.02;;
19593;SDS011;9944;48.240;16.478;2023-08-31T17:45:46;1.40;;;1.20;;
19593;SDS011;9944;48.240;16.478;2023-08-31T17:49:50;1.35;;;1.20;;
19593;SDS011;9944;48.240;16.478;2023-08-31T17:53:53;2.42;;;1.20;;
19593;SDS011;9944;48.240;16.478;2023-08-31T17:58:00;2.15;;;0.90;;
19593;SDS011;9944;48.240;16.478;2023-08-31T18:02:05;1.10;;;1.00;;
19593;SDS011;9944;48.240;16.478;2023-08-31T18:06:09;1.27;;;1.10;;
19593;SDS011;9944;48.240;16.478;2023-08-31T18:10:13;1.40;;;1.15;;
19593;SDS011;9944;48.240;16.478;2023-08-31T18:14:17;1.58;;;1.20;;
19593;SDS011;9944;48.240;16.478;2023-08-31T18:18:22;1.52;;;1.10;;
19593;SDS011;9944;48.240;16.478;2023-08-31T18:22:28;1.55;;;1.15;;
19593;SDS011;9944;48.240;16.478;2023-08-31T18:26:33;1.58;;;1.30;;
19593;SDS011;9944;48.240;16.478;2023-08-31T18:30:36;1.70;;;1.30;;
19593;SDS011;9944;48.240;16.478;2023-08-31T18:34:42;2.85;;;1.10;;
19593;SDS011;9944;48.240;16.478;2023-08-31T18:38:46;1.67;;;1.30;;
19593;SDS011;9944;48.240;16.478;2023-08-31T18:42:49;1.58;;;1.15;;
19593;SDS011;9944;48.240;16.478;2023-08-31T18:46:53;2.03;;;1.30;;
19593;SDS011;9944;48.240;16.478;2023-08-31T18:50:58;1.27;;;1.00;;
19593;SDS011;9944;48.240;16.478;2023-08-31T18:55:05;1.80;;;1.30;;
19593;SDS011;9944;48.240;16.478;2023-08-31T18:59:08;1.63;;;1.20;;
19593;SDS011;9944;48.240;16.478;2023-08-31T19:03:12;2.50;;;1.45;;
19593;SDS011;9944;48.240;16.478;2023-08-31T19:07:16;2.35;;;1.30;;
19593;SDS011;9944;48.240;16.478;2023-08-31T19:15:36;1.65;;;1.10;;
19593;SDS011;9944;48.240;16.478;2023-08-31T19:19:40;1.48;;;1.10;;
19593;SDS011;9944;48.240;16.478;2023-08-31T19:23:45;2.65;;;1.10;;
19593;SDS011;9944;48.240;16.478;2023-08-31T19:27:49;1.95;;;1.30;;
19593;SDS011;9944;48.240;16.478;2023-08-31T19:31:52;1.38;;;1.20;;
19593;SDS011;9944;48.240;16.478;2023-08-31T19:35:56;1.40;;;1.10;;
19593;SDS011;9944;48.240;16.478;2023-08-31T19:40:01;2.22;;;1.38;;
19593;SDS011;9944;48.240;16.478;2023-08-31T19:44:06;1.63;;;1.25;;
19593;SDS011;9944;48.240;16.478;2023-08-31T19:48:09;1.48;;;1.20;;
19593;SDS011;9944;48.240;16.478;2023-08-31T19:52:14;1.30;;;1.20;;
19593;SDS011;9944;48.240;16.478;2023-08-31T19:56:18;1.55;;;1.38;;
19593;SDS011;9944;48.240;16.478;2023-08-31T20:00:22;1.92;;;1.50;;
19593;SDS011;9944;48.240;16.478;2023-08-31T20:04:27;1.83;;;1.45;;
19593;SDS011;9944;48.240;16.478;2023-08-31T20:08:30;2.42;;;1.60;;
19593;SDS011;9944;48.240;16.478;2023-08-31T20:12:35;2.28;;;1.52;;
19593;SDS011;9944;48.240;16.478;2023-08-31T20:16:39;1.48;;;1.25;;
19593;SDS011;9944;48.240;16.478;2023-08-31T20:20:43;1.98;;;1.55;;
19593;SDS011;9944;48.240;16.478;2023-08-31T20:24:50;2.17;;;1.55;;
19593;SDS011;9944;48.240;16.478;2023-08-31T20:28:54;2.25;;;1.73;;
19593;SDS011;9944;48.240;16.478;2023-08-31T20:32:58;1.80;;;1.40;;
19593;SDS011;9944;48.240;16.478;2023-08-31T20:37:01;3.47;;;1.52;;
19593;SDS011;9944;48.240;16.478;2023-08-31T20:41:06;3.13;;;1.52;;
19593;SDS011;9944;48.240;16.478;2023-08-31T20:45:10;2.45;;;1.75;;
19593;SDS011;9944;48.240;16.478;2023-08-31T20:49:14;2.80;;;1.70;;
19593;SDS011;9944;48.240;16.478;2023-08-31T20:53:17;2.75;;;1.73;;
19593;SDS011;9944;48.240;16.478;2023-08-31T20:57:21;2.10;;;1.50;;
19593;SDS011;9944;48.240;16.478;2023-08-31T21:01:25;2.20;;;1.60;;
19593;SDS011;9944;48.240;16.478;2023-08-31T21:05:29;3.47;;;1.63;;
19593;SDS011;9944;48.240;16.478;2023-08-31T21:09:32;1.88;;;1.33;;
19593;SDS011;9944;48.240;16.478;2023-08-31T21:13:35;3.85;;;1.88;;
19593;SDS011;9944;48.240;16.478;2023-08-31T21:17:40;2.70;;;1.73;;
19593;SDS011;9944;48.240;16.478;2023-08-31T21:21:46;3.08;;;2.00;;
19593;SDS011;9944;48.240;16.478;2023-08-31T21:26:04;3.53;;;1.70;;
19593;SDS011;9944;48.240;16.478;2023-08-31T21:30:12;1.95;;;1.67;;
19593;SDS011;9944;48.240;16.478;2023-08-31T21:34:17;3.80;;;1.63;;
19593;SDS011;9944;48.240;16.478;2023-08-31T21:38:20;2.15;;;1.60;;
19593;SDS011;9944;48.240;16.478;2023-08-31T21:42:23;2.15;;;1.63;;
19593;SDS011;9944;48.240;16.478;2023-08-31T21:46:27;2.03;;;1.70;;
19593;SDS011;9944;48.240;16.478;2023-08-31T21:50:32;2.38;;;1.88;;
19593;SDS011;9944;48.240;16.478;2023-08-31T21:54:36;2.58;;;1.60;;
19593;SDS011;9944;48.240;16.478;2023-08-31T21:58:40;2.35;;;1.67;;
19593;SDS011;9944;48.240;16.478;2023-08-31T22:02:43;3.33;;;1.90;;
19593;SDS011;9944;48.240;16.478;2023-08-31T22:06:49;2.53;;;1.73;;
19593;SDS011;9944;48.240;16.478;2023-08-31T22:10:53;3.08;;;1.83;;
19593;SDS011;9944;48.240;16.478;2023-08-31T22:14:57;3.08;;;2.00;;
19593;SDS011;9944;48.240;16.478;2023-08-31T22:19:03;1.83;;;1.60;;
19593;SDS011;9944;48.240;16.478;2023-08-31T22:23:09;2.53;;;1.88;;
19593;SDS011;9944;48.240;16.478;2023-08-31T22:27:13;3.42;;;1.88;;
19593;SDS011;9944;48.240;16.478;2023-08-31T22:31:18;1.85;;;1.40;;
19593;SDS011;9944;48.240;16.478;2023-08-31T22:35:21;2.40;;;1.80;;
19593;SDS011;9944;48.240;16.478;2023-08-31T22:39:26;2.30;;;1.48;;
19593;SDS011;9944;48.240;16.478;2023-08-31T22:43:30;2.20;;;1.60;;
19593;SDS011;9944;48.240;16.478;2023-08-31T22:47:33;2.03;;;1.70;;
19593;SDS011;9944;48.240;16.478;2023-08-31T22:51:37;3.25;;;1.63;;
19593;SDS011;9944;48.240;16.478;2023-08-31T22:55:41;2.80;;;1.70;;
19593;SDS011;9944;48.240;16.478;2023-08-31T22:59:45;2.08;;;1.58;;
19593;SDS011;9944;48.240;16.478;2023-08-31T23:03:48;2.67;;;1.50;;
19593;SDS011;9944;48.240;16.478;2023-08-31T23:07:52;1.80;;;1.38;;
19593;SDS011;9944;48.240;16.478;2023-08-31T23:11:57;2.30;;;1.40;;
19593;SDS011;9944;48.240;16.478;2023-08-31T23:16:02;1.55;;;1.42;;
19593;SDS011;9944;48.240;16.478;2023-08-31T23:20:06;1.60;;;1.40;;
19593;SDS011;9944;48.240;16.478;2023-08-31T23:24:10;1.58;;;1.48;;
19593;SDS011;9944;48.240;16.478;2023-08-31T23:28:15;2.60;;;1.60;;
19593;SDS011;9944;48.240;16.478;2023-08-31T23:32:19;1.92;;;1.40;;
19593;SDS011;9944;48.240;16.478;2023-08-31T23:36:22;1.75;;;1.40;;
19593;SDS011;9944;48.240;16.478;2023-08-31T23:40:27;1.40;;;1.30;;
19593;SDS011;9944;48.240;16.478;2023-08-31T23:44:31;1.92;;;1.23;;
19593;SDS011;9944;48.240;16.478;2023-08-31T23:48:35;1.65;;;1.05;;
19593;SDS011;9944;48.240;16.478;2023-08-31T23:52:38;2.08;;;1.30;;
19593;SDS011;9944;48.240;16.478;2023-08-31T23:56:41;1.45;;;1.25;;
